Time;durP1;ratioP1;P1;durP2;ratioP2;P2;SDS_P1;SDS_P2;PMS_P1;PMS_P2;Temp;Humidity;BMP_temperature;BMP_pressure;BME280_temperature;BME280_humidity;BME280_pressure;Samples;Min_cycle;Max_cycle;Signal;HPM_P1;HPM_P2
2022/04/28 00:02:08;;;;;;;19.33;7.57;;;;;;;7.06;75.41;102771.25;5117202;28;20090;-62
2022/04/28 00:04:33;;;;;;;13.25;7.38;;;;;;;6.95;75.57;102752.69;5116920;28;20032;-61
2022/04/28 00:06:58;;;;;;;16.73;7.47;;;;;;;7.06;76.10;102773.88;5117073;28;20023;-63
2022/04/28 00:09:23;;;;;;;13.40;7.43;;;;;;;7.10;75.86;102774.84;5116812;28;20031;-62
2022/04/28 00:11:51;;;;;;;14.10;7.43;;;;;;;6.98;76.08;102764.91;5116906;28;20102;-61
2022/04/28 00:14:16;;;;;;;16.85;7.78;;;;;;;7.04;76.08;102780.72;5117205;28;20027;-62
2022/04/28 00:16:42;;;;;;;12.35;7.18;;;;;;;6.99;75.30;102791.00;5117169;28;20046;-61
2022/04/28 00:19:07;;;;;;;16.63;7.60;;;;;;;6.92;75.76;102775.16;5116917;28;20118;-62
2022/04/28 00:21:32;;;;;;;14.15;7.47;;;;;;;6.81;76.56;102766.97;5116580;28;20038;-63
2022/04/28 00:23:57;;;;;;;12.90;7.43;;;;;;;6.79;76.29;102768.63;5116487;28;20047;-61
2022/04/28 00:26:23;;;;;;;12.52;7.68;;;;;;;6.76;76.49;102776.34;5116787;28;20027;-65
2022/04/28 00:28:48;;;;;;;17.42;7.70;;;;;;;6.75;76.84;102784.13;5116791;28;20351;-62
2022/04/28 00:31:13;;;;;;;17.10;7.70;;;;;;;6.69;76.61;102786.50;5116530;28;20118;-62
2022/04/28 00:33:41;;;;;;;14.10;7.70;;;;;;;6.66;76.74;102781.19;5116336;28;20038;-64
2022/04/28 00:36:07;;;;;;;17.60;7.30;;;;;;;6.68;77.21;102784.72;5116482;28;20390;-61
2022/04/28 00:38:33;;;;;;;15.73;8.65;;;;;;;6.68;76.91;102782.13;5116359;28;20050;-61
2022/04/28 00:40:58;;;;;;;15.52;8.18;;;;;;;6.64;76.52;102779.41;5116441;28;20402;-62
2022/04/28 00:43:28;;;;;;;14.05;7.57;;;;;;;6.62;76.74;102773.28;5115898;28;20035;-62
2022/04/28 00:45:54;;;;;;;16.65;8.02;;;;;;;6.59;76.98;102773.16;5116286;28;20111;-62
2022/04/28 00:51:05;;;;;;;20.92;8.30;;;;;;;6.49;77.35;102783.22;5116822;28;20058;-63
2022/04/28 00:53:39;;;;;;;14.05;7.93;;;;;;;6.42;77.31;102784.72;5116290;28;20035;-62
2022/04/28 00:56:04;;;;;;;13.70;7.53;;;;;;;6.38;78.18;102776.78;5116388;28;20032;-61
2022/04/28 00:58:30;;;;;;;17.98;8.23;;;;;;;6.34;77.96;102777.50;5113044;28;20131;-61
2022/04/28 01:00:56;;;;;;;16.83;8.02;;;;;;;6.35;78.29;102772.34;5115165;28;20457;-62
2022/04/28 01:03:21;;;;;;;15.23;8.27;;;;;;;6.41;78.75;102771.66;5115813;28;20043;-61
2022/04/28 01:05:47;;;;;;;16.50;7.95;;;;;;;6.34;78.48;102773.19;5116005;28;20027;-62
2022/04/28 01:08:13;;;;;;;12.77;7.63;;;;;;;6.42;77.99;102771.72;5116058;28;20120;-63
2022/04/28 01:10:38;;;;;;;17.58;8.75;;;;;;;6.25;78.95;102776.31;5097810;28;20039;-63
2022/04/28 01:13:04;;;;;;;16.48;8.63;;;;;;;6.28;78.86;102781.63;5115869;28;20430;-61
2022/04/28 01:15:30;;;;;;;15.00;7.80;;;;;;;6.18;78.82;102776.06;5115411;28;20049;-61
2022/04/28 01:17:55;;;;;;;15.70;8.10;;;;;;;6.14;79.74;102780.28;5115653;28;20028;-61
2022/04/28 01:20:21;;;;;;;14.13;7.90;;;;;;;6.17;79.71;102777.78;5115612;28;20443;-61
2022/04/28 01:22:46;;;;;;;12.55;8.02;;;;;;;6.15;79.16;102784.63;5115516;28;20114;-61
2022/04/28 01:25:11;;;;;;;11.23;7.35;;;;;;;6.12;79.46;102787.13;5115465;28;20142;-62
2022/04/28 01:27:38;;;;;;;15.82;8.88;;;;;;;6.06;78.99;102786.03;5115845;28;20037;-62
2022/04/28 01:30:13;;;;;;;12.63;7.82;;;;;;;6.05;79.33;102787.75;5115396;28;20177;-62
2022/04/28 01:32:38;;;;;;;15.95;8.23;;;;;;;6.08;79.84;102780.03;5115187;28;20431;-62
2022/04/28 01:35:04;;;;;;;15.90;8.15;;;;;;;6.09;79.92;102786.13;5115468;28;20034;-62
2022/04/28 01:37:29;;;;;;;13.77;8.25;;;;;;;5.99;80.01;102784.03;5112735;28;20326;-62
2022/04/28 01:39:56;;;;;;;16.27;8.15;;;;;;;6.01;79.79;102771.97;5115677;28;20039;-61
2022/04/28 01:42:25;;;;;;;13.48;8.48;;;;;;;6.07;80.11;102788.66;5115656;28;20070;-61
2022/04/28 01:44:51;;;;;;;12.48;7.50;;;;;;;5.97;79.72;102786.56;5115077;28;20063;-62
2022/04/28 01:47:16;;;;;;;16.73;9.07;;;;;;;5.92;80.56;102778.59;5114978;28;20080;-62
2022/04/28 01:49:41;;;;;;;14.43;8.15;;;;;;;5.90;79.88;102779.38;5115136;28;20020;-60
2022/04/28 01:54:59;;;;;;;17.70;8.60;;;;;;;5.83;80.60;102775.66;5115607;28;20042;-62
2022/04/28 01:57:27;;;;;;;16.13;9.05;;;;;;;5.85;80.96;102779.19;5115311;28;20031;-63
2022/04/28 01:59:52;;;;;;;14.18;8.45;;;;;;;5.83;80.38;102782.56;5115139;28;20051;-63
2022/04/28 02:02:19;;;;;;;16.20;8.80;;;;;;;5.82;81.19;102780.78;5115529;28;20430;-62
2022/04/28 02:04:45;;;;;;;18.95;9.38;;;;;;;5.82;80.40;102785.97;5115292;28;20039;-61
2022/04/28 02:07:13;;;;;;;14.73;8.57;;;;;;;5.75;81.30;102784.84;5096990;28;20077;-62
2022/04/28 02:09:39;;;;;;;16.23;8.55;;;;;;;5.59;81.10;102774.72;5115251;28;20162;-62
2022/04/28 02:12:05;;;;;;;16.50;9.00;;;;;;;5.68;81.88;102794.97;5115843;28;20065;-62
2022/04/28 02:14:30;;;;;;;13.73;9.02;;;;;;;5.73;81.63;102786.50;5119221;28;20035;-62
2022/04/28 02:16:55;;;;;;;14.60;8.25;;;;;;;5.73;81.77;102785.63;5119127;28;20031;-61
2022/04/28 02:19:21;;;;;;;17.55;8.60;;;;;;;5.79;81.08;102788.47;5119317;28;20047;-62
2022/04/28 02:21:46;;;;;;;14.98;8.10;;;;;;;5.72;81.27;102789.94;5119177;28;20027;-61
2022/04/28 02:24:12;;;;;;;16.23;8.00;;;;;;;5.69;81.37;102789.84;5118529;28;20143;-62
2022/04/28 02:26:37;;;;;;;13.70;8.48;;;;;;;5.72;81.87;102795.13;5118902;28;20023;-61
2022/04/28 02:29:02;;;;;;;16.33;8.95;;;;;;;5.80;81.69;102792.81;5118711;28;20404;-63
2022/04/28 02:31:28;;;;;;;17.67;9.52;;;;;;;5.76;80.90;102785.75;5118582;28;20054;-63
2022/04/28 02:33:53;;;;;;;20.67;9.35;;;;;;;5.74;81.56;102783.09;5118981;28;20020;-62
2022/04/28 02:36:19;;;;;;;16.58;9.32;;;;;;;5.74;81.37;102787.38;5118834;28;20349;-63
2022/04/28 02:38:45;;;;;;;17.05;9.60;;;;;;;5.66;81.35;102779.31;5118844;28;20039;-61
2022/04/28 02:41:10;;;;;;;15.23;9.00;;;;;;;5.59;81.47;102785.09;5118590;28;20066;-62
2022/04/28 02:43:35;;;;;;;17.20;9.00;;;;;;;5.52;82.01;102786.59;5118906;28;20074;-61
2022/04/28 02:46:00;;;;;;;18.13;9.63;;;;;;;5.52;82.43;102785.72;5118592;28;20027;-62
2022/04/28 02:48:26;;;;;;;16.60;9.52;;;;;;;5.48;82.21;102776.03;5118379;28;20579;-61
2022/04/28 02:50:52;;;;;;;16.92;9.43;;;;;;;5.37;82.42;102779.94;5118820;28;20035;-61
2022/04/28 02:53:17;;;;;;;15.20;9.13;;;;;;;5.38;82.87;102776.50;5118559;28;20031;-61
2022/04/28 02:55:43;;;;;;;17.50;9.55;;;;;;;5.34;82.74;102779.81;5118474;28;20039;-62
2022/04/28 02:58:08;;;;;;;19.10;9.45;;;;;;;5.24;82.98;102774.25;5118607;28;20084;-61
2022/04/28 03:00:34;;;;;;;19.08;9.88;;;;;;;5.21;83.59;102776.72;5118183;28;20027;-61
2022/04/28 03:03:00;;;;;;;19.80;10.00;;;;;;;5.26;83.02;102784.69;5118340;28;20032;-62
2022/04/28 03:05:25;;;;;;;20.85;10.10;;;;;;;5.25;83.82;102772.53;5118314;28;20034;-62
2022/04/28 03:10:53;;;;;;;20.75;9.52;;;;;;;5.36;84.08;102779.06;5118177;28;20104;-62
2022/04/28 03:13:21;;;;;;;19.05;9.60;;;;;;;5.42;83.17;102784.47;5118221;28;20114;-62
2022/04/28 03:15:47;;;;;;;25.40;9.95;;;;;;;5.36;83.30;102779.06;5118247;28;20039;-62
2022/04/28 03:18:16;;;;;;;22.95;10.18;;;;;;;5.36;83.91;102783.34;5118277;28;20036;-60
2022/04/28 03:20:43;;;;;;;19.08;10.00;;;;;;;5.28;83.31;102779.56;5118073;28;20506;-63
2022/04/28 03:23:11;;;;;;;21.75;10.48;;;;;;;5.22;83.26;102783.69;5117361;28;20038;-63
2022/04/28 03:25:37;;;;;;;19.25;10.35;;;;;;;5.11;84.39;102769.41;5117176;28;20047;-62
2022/04/28 03:28:03;;;;;;;18.77;10.30;;;;;;;5.23;83.67;102784.56;5117918;28;20405;-62
2022/04/28 03:30:29;;;;;;;18.73;9.32;;;;;;;5.27;84.20;102782.97;5114721;28;20044;-63
2022/04/28 03:32:54;;;;;;;22.08;10.38;;;;;;;5.28;83.78;102779.56;5117887;28;20035;-62
2022/04/28 03:35:19;;;;;;;20.67;10.25;;;;;;;5.32;84.31;102778.88;5117549;28;20096;-61
2022/04/28 03:37:47;;;;;;;19.40;10.57;;;;;;;5.30;84.21;102781.41;5117683;28;20028;-61
2022/04/28 03:40:12;;;;;;;16.67;9.98;;;;;;;5.25;83.80;102783.81;5117923;28;20070;-63
2022/04/28 03:42:38;;;;;;;19.60;10.50;;;;;;;5.24;84.56;102778.56;5117622;28;20055;-62
2022/04/28 03:45:03;;;;;;;21.38;9.95;;;;;;;5.24;83.84;102775.97;5117339;28;20516;-61
2022/04/28 03:47:33;;;;;;;23.05;11.13;;;;;;;5.18;83.79;102784.41;5114342;28;20074;-63
2022/04/28 03:49:58;;;;;;;24.35;10.88;;;;;;;5.09;84.96;102776.25;5099623;28;20339;-62
2022/04/28 03:52:23;;;;;;;20.85;10.30;;;;;;;5.14;84.58;102781.63;5117275;28;20043;-61
2022/04/28 03:54:48;;;;;;;20.50;10.50;;;;;;;5.09;84.41;102781.44;5117625;28;20032;-61
2022/04/28 03:57:14;;;;;;;19.40;11.18;;;;;;;5.07;84.80;102792.56;5117259;28;20039;-62
2022/04/28 03:59:39;;;;;;;21.95;11.10;;;;;;;5.05;84.58;102794.22;5117189;28;20028;-61
2022/04/28 04:02:04;;;;;;;19.52;10.82;;;;;;;5.01;84.65;102795.81;5117490;28;20031;-62
2022/04/28 04:04:30;;;;;;;19.85;10.90;;;;;;;5.02;84.74;102796.72;5116828;28;20039;-62
2022/04/28 04:06:55;;;;;;;18.00;10.73;;;;;;;5.01;84.96;102797.53;5116950;28;20104;-61
2022/04/28 04:09:20;;;;;;;23.13;10.48;;;;;;;4.98;84.62;102792.22;5117253;28;20038;-61
2022/04/28 04:11:45;;;;;;;20.88;11.20;;;;;;;5.01;84.64;102792.34;5117208;28;20493;-61
2022/04/28 04:14:11;;;;;;;22.10;10.80;;;;;;;4.90;84.50;102790.19;5116808;28;20038;-61
2022/04/28 04:16:37;;;;;;;22.17;11.15;;;;;;;4.93;85.19;102799.78;5117043;28;20419;-63
2022/04/28 04:19:02;;;;;;;19.27;11.27;;;;;;;4.95;85.76;102810.25;5116991;28;20434;-63
2022/04/28 04:21:27;;;;;;;20.88;10.43;;;;;;;4.99;84.72;102804.34;5116721;28;20111;-62
2022/04/28 04:23:53;;;;;;;19.92;11.63;;;;;;;4.94;85.45;102793.78;5116654;28;20028;-63
2022/04/28 04:26:18;;;;;;;22.98;11.40;;;;;;;4.90;85.38;102802.25;5116666;28;20028;-62
2022/04/28 04:28:43;;;;;;;25.75;12.05;;;;;;;4.83;85.92;102801.16;5116801;28;20114;-61
2022/04/28 04:33:52;;;;;;;21.23;12.07;;;;;;;4.80;85.79;102806.19;5116726;28;20058;-62
2022/04/28 04:36:18;;;;;;;21.75;11.50;;;;;;;4.87;86.22;102807.31;5116410;28;20422;-61
2022/04/28 04:38:43;;;;;;;20.65;11.68;;;;;;;4.92;86.34;102812.69;5116491;28;20136;-62
2022/04/28 04:41:11;;;;;;;21.77;11.55;;;;;;;4.94;85.92;102814.53;5117160;28;20462;-60
2022/04/28 04:43:38;;;;;;;24.48;11.85;;;;;;;4.92;85.50;102817.88;5116431;28;20035;-60
2022/04/28 04:46:03;;;;;;;24.55;12.07;;;;;;;4.95;86.21;102813.72;5116341;28;20020;-59
2022/04/28 04:48:28;;;;;;;24.50;12.13;;;;;;;4.95;85.46;102818.91;5116100;28;20430;-59
2022/04/28 04:50:55;;;;;;;33.00;12.68;;;;;;;4.91;85.92;102814.41;5114050;28;20032;-60
2022/04/28 04:53:20;;;;;;;30.25;12.30;;;;;;;4.95;86.10;102821.50;5116111;28;20129;-60
2022/04/28 04:55:45;;;;;;;23.70;12.65;;;;;;;4.97;86.27;102817.28;5115981;28;20459;-59
2022/04/28 04:58:11;;;;;;;23.15;11.90;;;;;;;4.96;86.33;102823.28;5116089;28;20050;-60
2022/04/28 05:00:36;;;;;;;27.55;12.43;;;;;;;4.93;85.93;102830.03;5115502;28;20031;-59
2022/04/28 05:03:01;;;;;;;24.38;12.93;;;;;;;4.98;86.32;102829.41;5115487;28;20426;-59
2022/04/28 05:05:27;;;;;;;22.10;12.00;;;;;;;5.07;86.72;102832.38;5115884;28;20027;-59
2022/04/28 05:07:52;;;;;;;30.10;13.32;;;;;;;5.05;85.66;102831.44;5115810;28;20432;-59
2022/04/28 05:10:18;;;;;;;24.20;12.25;;;;;;;5.06;86.14;102840.09;5115267;28;20080;-60
2022/04/28 05:12:43;;;;;;;29.17;13.05;;;;;;;5.05;85.95;102834.00;5097658;28;20032;-58
2022/04/28 05:15:09;;;;;;;21.60;12.38;;;;;;;5.15;86.66;102856.94;5115628;28;20362;-61
2022/04/28 05:17:35;;;;;;;25.83;12.82;;;;;;;5.20;86.23;102854.50;5115284;28;20073;-59
2022/04/28 05:20:00;;;;;;;24.20;12.07;;;;;;;5.31;86.07;102850.66;5115507;28;20043;-58
2022/04/28 05:22:25;;;;;;;30.85;12.77;;;;;;;5.37;84.71;102855.22;5115423;28;20444;-60
2022/04/28 05:24:51;;;;;;;27.77;12.85;;;;;;;5.39;85.29;102856.13;5114836;28;20051;-59
2022/04/28 05:27:16;;;;;;;20.55;12.70;;;;;;;5.33;85.55;102855.91;5116091;28;20028;-60
2022/04/28 05:29:42;;;;;;;23.67;12.73;;;;;;;5.35;85.10;102849.09;5115626;28;20093;-60
2022/04/28 05:32:07;;;;;;;23.60;13.18;;;;;;;5.27;85.38;102824.50;5115464;28;20040;-59
2022/04/28 05:34:33;;;;;;;27.33;13.50;;;;;;;5.43;84.93;102858.03;5115177;28;20016;-59
2022/04/28 05:36:58;;;;;;;23.55;12.93;;;;;;;5.45;85.53;102859.88;5113758;28;20039;-60
2022/04/28 05:39:24;;;;;;;21.25;12.77;;;;;;;5.51;85.55;102857.53;5115582;28;20039;-59
2022/04/28 05:41:49;;;;;;;23.23;12.98;;;;;;;5.56;85.25;102860.28;5115148;28;20035;-59
2022/04/28 05:47:00;;;;;;;23.98;14.05;;;;;;;5.79;85.19;102869.88;5114538;28;20054;-60
2022/04/28 05:49:26;;;;;;;24.48;13.95;;;;;;;6.42;83.12;102875.72;5115420;28;20038;-59
2022/04/28 05:51:52;;;;;;;24.88;13.75;;;;;;;6.63;80.78;102875.63;5115317;28;20027;-59
2022/04/28 05:54:18;;;;;;;23.95;12.95;;;;;;;6.42;81.72;102875.72;5115493;28;20028;-59
2022/04/28 05:56:43;;;;;;;26.33;13.73;;;;;;;6.38;81.82;102879.06;5096989;28;20042;-59
2022/04/28 05:59:10;;;;;;;22.92;13.65;;;;;;;6.22;82.34;102879.34;5115105;28;20027;-59
2022/04/28 06:01:37;;;;;;;30.65;14.55;;;;;;;6.30;82.87;102885.69;5114843;28;20404;-59
2022/04/28 06:04:03;;;;;;;25.80;13.60;;;;;;;6.32;82.72;102883.16;5115054;28;20028;-59
2022/04/28 06:06:29;;;;;;;25.33;14.55;;;;;;;6.29;82.97;102884.81;5115641;28;20105;-59
2022/04/28 06:08:54;;;;;;;26.80;14.18;;;;;;;6.26;83.48;102886.41;5115401;28;20035;-59
2022/04/28 06:11:19;;;;;;;28.92;14.00;;;;;;;6.32;82.89;102893.56;5115248;28;20024;-59
2022/04/28 06:13:44;;;;;;;28.95;14.60;;;;;;;6.37;83.90;102899.81;5114917;28;20114;-59
2022/04/28 06:16:10;;;;;;;29.13;15.23;;;;;;;6.44;82.96;102884.47;5115290;28;20368;-59
2022/04/28 06:18:35;;;;;;;26.00;14.65;;;;;;;6.42;83.17;102895.66;5115409;28;20024;-59
2022/04/28 06:21:01;;;;;;;29.80;15.50;;;;;;;6.48;83.34;102911.47;5115072;28;20035;-59
2022/04/28 06:23:26;;;;;;;26.38;14.70;;;;;;;6.55;83.73;102900.47;5115038;28;20032;-61
2022/04/28 06:25:51;;;;;;;26.60;14.30;;;;;;;6.69;82.59;102911.38;5114938;28;20093;-59
2022/04/28 06:28:17;;;;;;;23.38;14.52;;;;;;;6.73;82.33;102916.75;5114928;28;20043;-58
2022/04/28 06:30:43;;;;;;;27.45;14.02;;;;;;;6.92;81.82;102918.28;5114498;28;20438;-58
2022/04/28 06:33:08;;;;;;;28.90;14.30;;;;;;;7.09;81.02;102916.25;5115083;28;20039;-59
2022/04/28 06:35:33;;;;;;;26.60;14.15;;;;;;;7.12;80.31;102916.34;5115054;28;20122;-64
2022/04/28 06:38:00;;;;;;;29.05;14.20;;;;;;;7.12;80.42;102913.72;5114809;28;20042;-62
2022/04/28 06:40:25;;;;;;;28.33;14.23;;;;;;;7.11;80.04;102918.06;5115136;28;20394;-63
2022/04/28 06:42:52;;;;;;;27.20;13.85;;;;;;;7.10;80.25;102908.47;5114710;28;20070;-62
2022/04/28 06:45:18;;;;;;;25.38;14.48;;;;;;;7.26;80.33;102917.72;5114583;28;20472;-63
2022/04/28 06:47:43;;;;;;;23.48;14.35;;;;;;;7.36;80.16;102908.47;5115108;28;20031;-62
2022/04/28 06:50:09;;;;;;;25.85;12.85;;;;;;;7.47;79.10;102921.00;5114917;28;20068;-63
2022/04/28 06:52:38;;;;;;;27.13;13.70;;;;;;;7.78;78.96;102915.06;5114768;28;20080;-63
2022/04/28 06:55:04;;;;;;;21.70;13.35;;;;;;;8.41;75.76;102915.25;5114909;28;20043;-61
2022/04/28 06:57:30;;;;;;;25.55;11.95;;;;;;;8.62;73.77;102917.59;5111374;28;20057;-65
2022/04/28 06:59:55;;;;;;;24.50;12.88;;;;;;;8.62;74.34;102923.69;5116710;28;20473;-64
2022/04/28 07:02:21;;;;;;;22.02;12.63;;;;;;;8.66;74.22;102933.34;5118090;28;20038;-64
2022/04/28 07:04:47;;;;;;;24.48;12.60;;;;;;;8.52;74.37;102916.41;5118085;28;20023;-64
2022/04/28 07:07:12;;;;;;;23.95;12.00;;;;;;;8.51;74.63;102934.63;5118370;28;20024;-64
2022/04/28 07:09:38;;;;;;;17.73;10.73;;;;;;;8.42;74.07;102921.34;5118172;28;20445;-63
2022/04/28 07:12:03;;;;;;;22.23;11.88;;;;;;;8.42;73.73;102931.78;5118100;28;20042;-61
2022/04/28 07:14:28;;;;;;;21.20;12.00;;;;;;;8.36;74.70;102937.69;5117963;28;20054;-64
2022/04/28 07:16:54;;;;;;;23.45;12.43;;;;;;;8.37;74.91;102929.03;5118825;28;20096;-63
2022/04/28 07:19:19;;;;;;;22.58;12.38;;;;;;;8.48;74.25;102942.41;5117981;28;20102;-65
2022/04/28 07:21:44;;;;;;;24.65;12.30;;;;;;;8.51;73.99;102938.13;5118012;28;20115;-63
2022/04/28 07:24:09;;;;;;;25.00;12.85;;;;;;;8.54;74.69;102948.66;5117886;28;20024;-63
2022/04/28 07:26:35;;;;;;;23.80;12.63;;;;;;;8.57;74.26;102943.53;5117819;28;20039;-63
2022/04/28 07:29:00;;;;;;;24.85;12.07;;;;;;;8.67;73.13;102952.50;5117438;28;20446;-64
2022/04/28 07:31:26;;;;;;;21.95;11.68;;;;;;;8.70;73.04;102948.25;5117555;28;20027;-63
2022/04/28 07:33:51;;;;;;;23.77;11.80;;;;;;;8.67;73.34;102942.94;5118215;28;20055;-62
2022/04/28 07:36:17;;;;;;;22.98;12.15;;;;;;;8.78;73.13;102963.25;5118011;28;20063;-64
2022/04/28 07:38:42;;;;;;;21.55;10.98;;;;;;;8.84;72.28;102960.81;5117813;28;20031;-58
2022/04/28 07:41:07;;;;;;;21.42;10.40;;;;;;;8.92;72.38;102954.97;5117673;28;20027;-64
2022/04/28 07:43:33;;;;;;;22.38;12.20;;;;;;;9.03;72.52;102958.72;5117437;28;20519;-65
2022/04/28 07:45:58;;;;;;;22.25;12.23;;;;;;;9.14;71.18;102969.50;5117428;28;20023;-65
2022/04/28 07:48:23;;;;;;;23.83;11.70;;;;;;;9.10;71.22;102957.19;5117692;28;20062;-63
2022/04/28 07:50:50;;;;;;;24.08;11.82;;;;;;;9.14;71.28;102972.09;5114214;28;20054;-63
2022/04/28 07:53:15;;;;;;;18.85;11.57;;;;;;;9.15;70.80;102979.09;5117377;28;20396;-63
2022/04/28 07:55:40;;;;;;;20.27;10.73;;;;;;;9.17;69.82;102974.81;5117525;28;20092;-64
2022/04/28 07:58:06;;;;;;;21.48;10.75;;;;;;;9.21;70.32;102971.41;5117410;28;20035;-62
2022/04/28 08:00:31;;;;;;;26.02;11.40;;;;;;;9.20;70.75;102977.47;5117014;28;20027;-62
2022/04/28 08:02:56;;;;;;;24.80;11.05;;;;;;;9.16;70.19;102952.13;5117228;28;20020;-64
2022/04/28 08:05:21;;;;;;;23.70;12.05;;;;;;;9.31;70.81;102977.75;5099328;28;20374;-64
2022/04/28 08:07:47;;;;;;;16.67;10.63;;;;;;;9.40;69.72;102980.59;5113855;28;20035;-62
2022/04/28 08:10:12;;;;;;;19.08;9.98;;;;;;;9.50;69.19;102979.13;5116813;28;20027;-62
2022/04/28 08:12:38;;;;;;;16.85;9.57;;;;;;;9.54;69.79;102984.44;5116797;28;20349;-62
2022/04/28 08:15:03;;;;;;;20.80;10.38;;;;;;;9.66;69.69;102984.78;5116629;28;20055;-63
2022/04/28 08:17:29;;;;;;;24.23;11.40;;;;;;;9.71;67.95;102975.28;5117035;28;20467;-63
2022/04/28 08:19:54;;;;;;;20.95;11.40;;;;;;;9.70;67.46;102980.47;5116906;28;20100;-63
2022/04/28 08:22:19;;;;;;;25.58;10.93;;;;;;;9.81;67.10;102984.25;5117276;28;20115;-61
2022/04/28 08:24:45;;;;;;;19.02;10.38;;;;;;;9.71;66.89;102979.63;5116422;28;20050;-62
2022/04/28 08:27:10;;;;;;;28.77;11.88;;;;;;;9.85;67.99;102990.44;5098352;28;20032;-63
2022/04/28 08:29:35;;;;;;;22.95;10.82;;;;;;;9.95;67.83;102992.41;5117015;28;20039;-61
2022/04/28 08:32:01;;;;;;;31.95;12.05;;;;;;;10.02;67.52;102992.63;5116592;28;20096;-56
2022/04/28 08:34:26;;;;;;;26.15;11.02;;;;;;;10.09;66.76;102993.63;5113234;28;20047;-63
2022/04/28 08:36:51;;;;;;;21.08;10.43;;;;;;;10.14;67.13;102999.84;5116496;28;20035;-63
2022/04/28 08:39:17;;;;;;;19.67;10.80;;;;;;;10.25;67.19;103000.13;5116488;28;20082;-64
2022/04/28 08:41:49;;;;;;;21.90;11.52;;;;;;;10.24;66.29;102990.50;5116602;28;20028;-63
2022/04/28 08:44:17;;;;;;;;;;;;;;;10.30;67.17;102993.25;5116804;28;20042;-58
2022/04/28 08:46:51;;;;;;;21.95;10.82;;;;;;;10.26;66.78;102992.31;5116110;28;20322;-61
2022/04/28 08:49:20;;;;;;;20.40;10.43;;;;;;;10.37;66.32;103000.41;5116285;28;20039;-61
2022/04/28 08:51:46;;;;;;;21.02;10.38;;;;;;;10.51;66.02;103000.69;5116163;28;20378;-60
2022/04/28 08:54:13;;;;;;;20.33;10.73;;;;;;;10.50;65.34;102991.06;5116166;28;20176;-62
2022/04/28 08:56:39;;;;;;;21.17;10.55;;;;;;;10.61;65.40;103000.91;5116014;28;20704;-52
2022/04/28 08:59:05;;;;;;;19.25;10.40;;;;;;;10.69;63.90;102988.88;5116057;28;20042;-57
2022/04/28 09:01:31;;;;;;;18.17;10.55;;;;;;;11.64;62.84;103001.09;5115202;28;20418;-57
2022/04/28 09:03:58;;;;;;;20.08;10.52;;;;;;;12.94;58.16;102996.00;5115806;28;20024;-57
2022/04/28 09:06:28;;;;;;;22.52;10.95;;;;;;;13.79;54.58;102983.69;5115947;28;20046;-58
2022/04/28 09:08:55;;;;;;;21.05;10.52;;;;;;;13.62;55.61;102980.03;5115862;28;20043;-62
2022/04/28 09:11:23;;;;;;;20.73;10.35;;;;;;;13.44;54.67;102984.25;5115807;28;20342;-61
2022/04/28 09:14:11;;;;;;;19.25;10.10;;;;;;;13.16;55.80;102955.97;5115799;28;20350;-62
2022/04/28 09:16:49;;;;;;;18.02;10.23;;;;;;;13.23;57.43;102978.78;5115756;28;20079;-62
2022/04/28 09:19:23;;;;;;;23.50;11.02;;;;;;;13.02;57.75;102984.69;5115732;28;20046;-62
2022/04/28 09:21:50;;;;;;;17.58;10.65;;;;;;;12.84;57.18;102981.84;5114719;28;20354;-63
2022/04/28 09:24:16;;;;;;;21.55;10.95;;;;;;;12.86;57.69;102985.38;5115586;28;20085;-62
2022/04/28 09:26:41;;;;;;;19.38;10.88;;;;;;;12.93;56.59;102975.81;5115889;28;20031;-64
2022/04/28 09:29:12;;;;;;;22.00;11.25;;;;;;;13.00;57.07;102973.25;5115722;28;20442;-62
2022/04/28 09:31:39;;;;;;;20.90;11.07;;;;;;;13.03;55.57;102977.66;5115618;28;20439;-62
2022/04/28 09:34:09;;;;;;;24.10;10.93;;;;;;;13.01;55.79;102971.50;5115445;28;20080;-63
2022/04/28 09:36:35;;;;;;;19.85;10.85;;;;;;;13.10;56.14;102976.88;5115504;28;20092;-62
2022/04/28 09:39:01;;;;;;;19.67;11.18;;;;;;;13.27;55.43;102969.19;5115419;28;20028;-61
2022/04/28 09:44:13;;;;;;;22.20;10.88;;;;;;;13.42;56.67;102970.22;5115568;28;20042;-63
2022/04/28 09:46:41;;;;;;;20.35;10.40;;;;;;;13.55;53.84;102971.19;5114759;28;20035;-64
2022/04/28 09:49:12;;;;;;;19.73;10.50;;;;;;;13.70;54.28;102965.16;5115245;28;20430;-63
2022/04/28 09:51:39;;;;;;;19.77;10.98;;;;;;;13.87;52.99;102961.78;5115495;28;20102;-65
2022/04/28 09:54:07;;;;;;;18.95;10.68;;;;;;;13.94;52.06;102970.63;5115271;28;20035;-62
2022/04/28 09:56:34;;;;;;;21.17;11.52;;;;;;;13.84;52.69;102963.53;5115194;28;20427;-62
2022/04/28 09:59:00;;;;;;;21.98;10.07;;;;;;;13.87;52.61;102959.16;5115182;28;20079;-62
2022/04/28 10:01:28;;;;;;;19.42;10.27;;;;;;;14.05;52.15;102961.03;5115093;28;20393;-64
2022/04/28 10:03:53;;;;;;;19.83;10.20;;;;;;;14.04;51.46;102959.25;5115175;28;20028;-63
2022/04/28 10:06:20;;;;;;;19.05;10.07;;;;;;;14.02;51.74;102949.63;5115435;28;20050;-64
2022/04/28 10:08:47;;;;;;;19.15;10.32;;;;;;;14.20;51.53;102945.31;5115468;28;20028;-63
2022/04/28 10:11:19;;;;;;;17.55;9.95;;;;;;;14.40;51.38;102942.81;5115682;28;20069;-63
2022/04/28 10:13:46;;;;;;;;;;;;;;;14.65;54.63;102946.44;5097068;28;20435;-62
2022/04/28 10:16:13;;;;;;;17.05;9.90;;;;;;;14.98;49.31;102945.63;5114989;28;19962;-62
2022/04/28 10:18:44;;;;;;;13.60;9.52;;;;;;;14.82;47.93;102952.63;5115116;28;20439;-63
2022/04/28 10:21:13;;;;;;;14.25;9.55;;;;;;;14.99;49.55;102947.41;5115102;28;20032;-63
2022/04/28 10:34:58;;;;;;;17.30;10.00;;;;;;;15.50;48.72;102941.28;5117598;28;20046;-63
2022/04/28 10:37:31;;;;;;;17.42;9.80;;;;;;;15.52;48.20;102936.91;5119025;28;20475;-63
2022/04/28 10:39:56;;;;;;;14.15;9.38;;;;;;;15.56;46.92;102933.41;5118605;28;20027;-63
2022/04/28 10:42:27;;;;;;;17.58;10.65;;;;;;;15.57;46.54;102935.19;5118908;28;20031;-64
2022/04/28 10:44:55;;;;;;;17.25;10.02;;;;;;;15.44;46.58;102935.13;5118589;28;20031;-60
2022/04/28 10:47:41;;;;;;;13.70;9.48;;;;;;;15.62;48.70;102932.50;5118699;28;20400;-59
2022/04/28 10:50:22;;;;;;;18.23;9.43;;;;;;;15.76;47.14;102928.09;5118682;28;20032;-65
2022/04/28 10:53:01;;;;;;;18.42;11.05;;;;;;;15.65;46.87;102922.84;5118644;28;20035;-64
2022/04/28 10:55:40;;;;;;;16.90;10.60;;;;;;;15.77;48.38;102913.13;5118705;28;20024;-65
2022/04/28 10:58:22;;;;;;;16.50;9.60;;;;;;;16.10;48.67;102921.00;5118337;28;20114;-65
2022/04/28 11:00:52;;;;;;;17.52;10.48;;;;;;;16.13;46.23;102913.03;5118759;28;20034;-63
2022/04/28 11:03:43;;;;;;;18.50;10.60;;;;;;;16.20;46.89;102922.72;5118506;28;20034;-65
2022/04/28 11:06:13;;;;;;;19.10;10.05;;;;;;;16.00;45.25;102916.59;5118121;28;20023;-63
2022/04/28 11:08:45;;;;;;;16.17;10.30;;;;;;;15.88;45.82;102924.56;5118617;28;20031;-57
2022/04/28 11:11:12;;;;;;;19.63;11.02;;;;;;;15.80;45.88;102919.28;5118365;28;20119;-63
2022/04/28 11:13:40;;;;;;;17.42;10.55;;;;;;;15.87;45.53;102923.69;5118426;28;20035;-63
2022/04/28 11:16:07;;;;;;;14.85;10.05;;;;;;;15.91;45.07;102920.16;5117738;28;20027;-64
2022/04/28 11:18:33;;;;;;;18.13;10.75;;;;;;;15.94;45.83;102908.69;5117869;28;20043;-65
2022/04/28 11:21:01;;;;;;;17.23;11.00;;;;;;;15.86;44.52;102906.09;5118570;28;20113;-63
2022/04/28 11:23:31;;;;;;;17.23;11.93;;;;;;;15.64;44.77;102912.28;5118408;28;20042;-64
2022/04/28 11:25:57;;;;;;;14.65;10.85;;;;;;;15.59;46.85;102912.28;5117994;28;20058;-64
2022/04/28 11:28:23;;;;;;;16.50;10.88;;;;;;;15.51;46.27;102915.78;5117963;28;20393;-60
2022/04/28 11:30:48;;;;;;;20.92;11.15;;;;;;;15.80;45.83;102908.72;5117793;28;20066;-59
2022/04/28 11:33:13;;;;;;;18.60;11.60;;;;;;;15.87;46.67;102901.69;5118143;28;20039;-62
2022/04/28 11:35:40;;;;;;;16.65;11.20;;;;;;;15.83;45.76;102906.09;5117657;28;20053;-60
2022/04/28 11:38:06;;;;;;;17.60;11.07;;;;;;;15.88;45.46;102900.81;5114656;28;20111;-60
2022/04/28 11:40:34;;;;;;;18.27;12.05;;;;;;;15.80;45.23;102908.72;5117437;28;20392;-60
2022/04/28 11:43:01;;;;;;;18.88;11.23;;;;;;;15.89;46.68;102902.56;5117732;28;20034;-60
2022/04/28 11:45:31;;;;;;;22.00;11.75;;;;;;;16.15;47.23;102894.53;5115985;28;20028;-60